Pagrindinis puslapis
METAR-TAF:

METAR-TAF

Oro uostai :

Rørvik, Norvegija

platuma: 64-50N, ilguma: 011-09E, Aukštis: 4 m

Dabartinis oras

Ataskaita buvo paskelbta 31 minutes, ne 12:20 UTC
Vėjas 2 kt nuo kintamojo kryptimis
Temperatūra 2°C
Drėgmė 87%
Slėgis 1001 hPa
Matomumas 10 km arba daugiau
Mažai debesys ne aukštis 2000 ft, aukštai iškilę kamuoliniai debesys.
Išsisklaidę debesys ne aukštis 4000 ft
Liūtis kaimynystėje

METAR: ENRM 191220Z VRB02KT 9999 VCSH FEW020TCU SCT040 02/M00 Q1001

Laikas: 13:51 (12:51 UTC)

Prognozė

Ataskaita buvo paskelbta 1 valandą ir 51 minutes, ne 11:00 UTC
Prognozė galioja nuo 19 metu 12 UTC su 19 metu 21 UTC
Vėjas 5 kt nuo kintamojo kryptimis
Matomumas 10 km arba daugiau
Mažai debesys ne aukštis 2000 ft, aukštai iškilę kamuoliniai debesys.
Su prošvaistėmis ne aukštis 4000 ft
Tikimybė 40% :
Laikinai
nuo 19 metu 12 UTC su 19 metu 18 UTC
Matomumas: 2000 m
Su prošvaistėmis ne aukštis 1000 ft
lietus, sniegas

TAF: ENRM 191100Z 1912/1921 VRB05KT 9999 FEW020TCU BKN040 PROB40 TEMPO 1912/1918 2000 -SHRASN BKN010

Orai ataskaitas ir orų prognozės (METAR, TAF).

turimą stotys yra geltonos ir raudonos taškus žemėlapyje.

Perkelti pele per norėdami pamatyti stoties vardą.

Tada spustelėkite, norėdami matyti oro stebėjimo ir prognozės.

Norėdami pakeisti žemėlapį: spustelėkite ant žalios mygtukų su juodo kryžiaus žemyn,; žalią mygtuką su brūkšneliu, jei norite nutolinti; arba žalių rodyklių gretimoms žemėlapius.


METAR-TAF: